Time,TemperatureF,DewpointF,PressureIn,WindDirection,WindDirectionDegrees,WindSpeedMPH,WindSpeedGustMPH,Humidity,HourlyPrecipIn,Conditions,Clouds,dailyrainin,SolarRadiationWatts/m^2,SoftwareType,DateUTC
2014-10-21 00:23:00,55.0,55.0,-100.00,North,-999,0.0,4.0,99,0.00,,,0.00,0.000000,,2014-10-21 05:23:00,
2014-10-21 00:32:00,55.0,55.0,-100.00,North,-999,0.0,4.0,99,0.00,,,0.00,0.000000,,2014-10-21 05:32:00,
2014-10-21 00:43:00,55.0,55.0,-100.00,North,-999,0.0,4.0,99,0.00,,,0.00,0.000000,,2014-10-21 05:43:00,
2014-10-21 00:53:00,55.0,55.0,-100.00,North,-999,0.0,4.0,99,0.00,,,0.00,0.000000,,2014-10-21 05:53:00,
2014-10-21 01:22:00,54.0,54.0,-100.00,North,-999,0.0,2.0,100,0.00,,,0.00,0.000000,,2014-10-21 06:22:00,
2014-10-21 01:32:00,54.0,54.0,-100.00,North,-999,0.0,2.0,100,0.00,,,0.00,0.000000,,2014-10-21 06:32:00,
2014-10-21 01:42:00,54.0,54.0,-100.00,North,-999,0.0,2.0,100,0.00,,,0.00,0.000000,,2014-10-21 06:42:00,
2014-10-21 01:52:00,54.0,54.0,-100.00,North,-999,0.0,2.0,100,0.00,,,0.00,0.000000,,2014-10-21 06:52:00,
2014-10-21 02:22:00,53.0,53.0,-100.00,North,-999,0.0,2.0,100,0.00,,,0.00,0.000000,,2014-10-21 07:22:00,
2014-10-21 02:32:00,53.0,53.0,-100.00,North,-999,0.0,2.0,100,0.00,,,0.00,0.000000,,2014-10-21 07:32:00,
2014-10-21 02:42:00,53.0,53.0,-100.00,North,-999,0.0,2.0,100,0.00,,,0.00,0.000000,,2014-10-21 07:42:00,
2014-10-21 02:52:00,53.0,53.0,-100.00,North,-999,0.0,2.0,100,0.00,,,0.00,0.000000,,2014-10-21 07:52:00,
2014-10-21 03:22:00,53.0,53.0,-100.00,North,-999,0.0,0.0,100,0.00,,,0.00,0.000000,,2014-10-21 08:22:00,
2014-10-21 03:32:00,53.0,53.0,-100.00,North,-999,0.0,0.0,100,0.00,,,0.00,0.000000,,2014-10-21 08:32:00,
2014-10-21 03:42:00,53.0,53.0,-100.00,North,-999,0.0,0.0,100,0.00,,,0.00,0.000000,,2014-10-21 08:42:00,
2014-10-21 03:52:00,53.0,53.0,-100.00,North,-999,0.0,0.0,100,0.00,,,0.00,0.000000,,2014-10-21 08:52:00,
2014-10-21 04:22:00,52.0,52.0,-100.00,North,-999,0.0,2.0,100,0.00,,,0.00,0.000000,,2014-10-21 09:22:00,
2014-10-21 04:34:00,52.0,52.0,-100.00,North,-999,0.0,2.0,100,0.00,,,0.00,0.000000,,2014-10-21 09:34:00,
2014-10-21 04:43:00,52.0,52.0,-100.00,North,-999,0.0,2.0,100,0.00,,,0.00,0.000000,,2014-10-21 09:43:00,
2014-10-21 04:53:00,52.0,52.0,-100.00,North,-999,0.0,2.0,100,0.00,,,0.00,0.000000,,2014-10-21 09:53:00,
2014-10-21 05:23:00,51.0,51.0,-100.00,SW,224,4.0,5.0,100,0.00,,,0.00,0.000000,,2014-10-21 10:23:00,
2014-10-21 05:33:00,51.0,51.0,-100.00,SW,224,4.0,5.0,100,0.00,,,0.00,0.000000,,2014-10-21 10:33:00,
2014-10-21 05:43:00,51.0,51.0,-100.00,SW,224,4.0,5.0,100,0.00,,,0.00,0.000000,,2014-10-21 10:43:00,
2014-10-21 05:53:00,51.0,51.0,-100.00,SW,224,4.0,5.0,100,0.00,,,0.00,0.000000,,2014-10-21 10:53:00,
2014-10-21 06:23:00,51.0,51.0,-100.00,North,-999,0.0,4.0,100,0.00,,,0.00,0.000000,,2014-10-21 11:23:00,
2014-10-21 06:34:00,51.0,51.0,-100.00,North,-999,0.0,4.0,100,0.00,,,0.00,0.000000,,2014-10-21 11:34:00,
2014-10-21 06:43:00,51.0,51.0,-100.00,North,-999,0.0,4.0,100,0.00,,,0.00,0.000000,,2014-10-21 11:43:00,
2014-10-21 06:52:00,51.0,51.0,-100.00,North,-999,0.0,4.0,100,0.00,,,0.00,0.000000,,2014-10-21 11:52:00,
2014-10-21 07:22:00,53.0,53.0,-100.00,SSW,208,2.0,3.0,100,0.00,,,0.00,0.000000,,2014-10-21 12:22:00,
2014-10-21 07:32:00,53.0,53.0,-100.00,SSW,208,2.0,3.0,100,0.00,,,0.00,0.000000,,2014-10-21 12:32:00,
2014-10-21 07:42:00,53.0,53.0,-100.00,SSW,208,2.0,3.0,100,0.00,,,0.00,0.000000,,2014-10-21 12:42:00,
2014-10-21 07:52:00,53.0,53.0,-100.00,SSW,208,2.0,3.0,100,0.00,,,0.00,0.000000,,2014-10-21 12:52:00,
2014-10-21 08:22:00,55.0,55.0,-100.00,SSW,213,4.0,5.0,100,0.00,,,0.00,0.000000,,2014-10-21 13:22:00,
2014-10-21 08:32:00,55.0,55.0,-100.00,SSW,213,4.0,5.0,100,0.00,,,0.00,0.000000,,2014-10-21 13:32:00,
2014-10-21 08:42:00,55.0,55.0,-100.00,SSW,213,4.0,5.0,100,0.00,,,0.00,0.000000,,2014-10-21 13:42:00,
2014-10-21 08:52:00,55.0,55.0,-100.00,SSW,213,4.0,5.0,100,0.00,,,0.00,0.000000,,2014-10-21 13:52:00,
2014-10-21 09:22:00,61.0,61.0,-100.00,NW,324,1.0,5.0,100,0.00,,,0.00,0.000000,,2014-10-21 14:22:00,
2014-10-21 09:33:00,61.0,61.0,-100.00,NW,324,1.0,5.0,100,0.00,,,0.00,0.000000,,2014-10-21 14:33:00,
2014-10-21 09:42:00,61.0,61.0,-100.00,NW,324,1.0,5.0,100,0.00,,,0.00,0.000000,,2014-10-21 14:42:00,
2014-10-21 09:52:00,61.0,61.0,-100.00,NW,324,1.0,5.0,100,0.00,,,0.00,0.000000,,2014-10-21 14:52:00,
2014-10-21 11:43:00,78.0,62.0,-100.00,East,80,3.0,5.0,58,0.00,,,0.00,0.000000,,2014-10-21 16:43:00,
2014-10-21 11:53:00,78.0,62.0,-100.00,East,80,3.0,5.0,58,0.00,,,0.00,0.000000,,2014-10-21 16:53:00,
2014-10-21 12:23:00,80.0,61.0,-100.00,NNE,14,4.0,10.0,52,0.00,,,0.00,0.000000,,2014-10-21 17:23:00,
2014-10-21 12:33:00,80.0,61.0,-100.00,NNE,14,4.0,10.0,52,0.00,,,0.00,0.000000,,2014-10-21 17:33:00,
2014-10-21 12:43:00,80.0,61.0,-100.00,NNE,14,4.0,10.0,52,0.00,,,0.00,0.000000,,2014-10-21 17:43:00,
2014-10-21 12:53:00,80.0,61.0,-100.00,NNE,14,4.0,10.0,52,0.00,,,0.00,0.000000,,2014-10-21 17:53:00,
2014-10-21 13:22:00,80.0,60.0,-100.00,WSW,242,3.0,9.0,51,0.00,,,0.00,0.000000,,2014-10-21 18:22:00,
2014-10-21 13:32:00,80.0,60.0,-100.00,WSW,242,3.0,9.0,51,0.00,,,0.00,0.000000,,2014-10-21 18:32:00,
2014-10-21 13:42:00,80.0,60.0,-100.00,WSW,242,3.0,9.0,51,0.00,,,0.00,0.000000,,2014-10-21 18:42:00,
2014-10-21 13:52:00,80.0,60.0,-100.00,WSW,242,3.0,9.0,51,0.00,,,0.00,0.000000,,2014-10-21 18:52:00,
2014-10-21 14:22:00,82.0,62.0,-100.00,WNW,291,5.0,11.0,51,0.00,,,0.00,0.000000,,2014-10-21 19:22:00,
2014-10-21 14:32:00,82.0,62.0,-100.00,WNW,291,5.0,11.0,51,0.00,,,0.00,0.000000,,2014-10-21 19:32:00,
2014-10-21 14:42:00,82.0,62.0,-100.00,WNW,291,5.0,11.0,51,0.00,,,0.00,0.000000,,2014-10-21 19:42:00,
2014-10-21 14:52:00,82.0,62.0,-100.00,WNW,291,5.0,11.0,51,0.00,,,0.00,0.000000,,2014-10-21 19:52:00,
2014-10-21 15:23:00,82.0,61.0,-100.00,NNE,18,5.0,10.0,50,0.00,,,0.00,0.000000,,2014-10-21 20:23:00,
2014-10-21 15:33:00,82.0,61.0,-100.00,NNE,18,5.0,10.0,50,0.00,,,0.00,0.000000,,2014-10-21 20:33:00,
2014-10-21 15:43:00,82.0,61.0,-100.00,NNE,18,5.0,10.0,50,0.00,,,0.00,0.000000,,2014-10-21 20:43:00,
2014-10-21 15:52:00,82.0,61.0,-100.00,NNE,18,5.0,10.0,50,0.00,,,0.00,0.000000,,2014-10-21 20:52:00,
2014-10-21 16:22:00,82.0,63.0,-100.00,NE,51,4.0,11.0,53,0.00,,,0.00,0.000000,,2014-10-21 21:22:00,
2014-10-21 16:33:00,82.0,63.0,-100.00,NE,51,4.0,11.0,53,0.00,,,0.00,0.000000,,2014-10-21 21:33:00,
2014-10-21 16:43:00,82.0,63.0,-100.00,NE,51,4.0,11.0,53,0.00,,,0.00,0.000000,,2014-10-21 21:43:00,
2014-10-21 16:53:00,82.0,63.0,-100.00,NE,51,4.0,11.0,53,0.00,,,0.00,0.000000,,2014-10-21 21:53:00,
2014-10-21 17:23:00,79.0,58.0,-100.00,NW,322,5.0,10.0,49,0.00,,,0.00,0.000000,,2014-10-21 22:23:00,
2014-10-21 17:33:00,79.0,58.0,-100.00,NW,322,5.0,10.0,49,0.00,,,0.00,0.000000,,2014-10-21 22:33:00,
2014-10-21 17:43:00,79.0,58.0,-100.00,NW,322,5.0,10.0,49,0.00,,,0.00,0.000000,,2014-10-21 22:43:00,
2014-10-21 17:53:00,79.0,58.0,-100.00,NW,322,5.0,10.0,49,0.00,,,0.00,0.000000,,2014-10-21 22:53:00,
2014-10-21 18:22:00,75.0,62.0,-100.00,NE,40,3.0,6.0,64,0.00,,,0.00,0.000000,,2014-10-21 23:22:00,
2014-10-21 18:32:00,75.0,62.0,-100.00,NE,40,3.0,6.0,64,0.00,,,0.00,0.000000,,2014-10-21 23:32:00,
2014-10-21 18:42:00,75.0,62.0,-100.00,NE,40,3.0,6.0,64,0.00,,,0.00,0.000000,,2014-10-21 23:42:00,
2014-10-21 18:52:00,75.0,62.0,-100.00,NE,40,3.0,6.0,64,0.00,,,0.00,0.000000,,2014-10-21 23:52:00,
2014-10-21 19:42:00,66.0,63.0,-100.00,NE,37,4.0,5.0,90,0.00,,,0.00,0.000000,,2014-10-22 00:42:00,
2014-10-21 19:52:00,66.0,63.0,-100.00,NE,37,4.0,5.0,90,0.00,,,0.00,0.000000,,2014-10-22 00:52:00,
2014-10-21 20:22:00,63.0,62.0,-100.00,NW,316,2.0,5.0,96,0.00,,,0.00,0.000000,,2014-10-22 01:22:00,
2014-10-21 20:32:00,63.0,62.0,-100.00,NW,316,2.0,5.0,96,0.00,,,0.00,0.000000,,2014-10-22 01:32:00,
2014-10-21 20:42:00,63.0,62.0,-100.00,NW,316,2.0,5.0,96,0.00,,,0.00,0.000000,,2014-10-22 01:42:00,
2014-10-21 20:52:00,63.0,62.0,-100.00,NW,316,2.0,5.0,96,0.00,,,0.00,0.000000,,2014-10-22 01:52:00,